sensor_id;sensor_type;location;lat;lon;timestamp;P1;durP1;ratioP1;P2;durP2;ratioP2
20709;SDS011;10516;51.518;9.864;2023-09-07T00:01:20;14.10;;;6.20;;
20709;SDS011;10516;51.518;9.864;2023-09-07T00:03:45;8.82;;;5.93;;
20709;SDS011;10516;51.518;9.864;2023-09-07T00:06:10;9.98;;;5.65;;
20709;SDS011;10516;51.518;9.864;2023-09-07T00:08:36;6.28;;;5.65;;
20709;SDS011;10516;51.518;9.864;2023-09-07T00:11:02;11.68;;;5.35;;
20709;SDS011;10516;51.518;9.864;2023-09-07T00:13:31;11.27;;;6.20;;
20709;SDS011;10516;51.518;9.864;2023-09-07T00:15:59;7.55;;;6.20;;
20709;SDS011;10516;51.518;9.864;2023-09-07T00:18:26;10.52;;;5.75;;
20709;SDS011;10516;51.518;9.864;2023-09-07T00:20:52;12.45;;;6.05;;
20709;SDS011;10516;51.518;9.864;2023-09-07T00:23:17;8.65;;;7.53;;
20709;SDS011;10516;51.518;9.864;2023-09-07T00:25:43;11.27;;;6.70;;
20709;SDS011;10516;51.518;9.864;2023-09-07T00:28:08;12.77;;;6.13;;
20709;SDS011;10516;51.518;9.864;2023-09-07T00:30:33;12.15;;;5.60;;
20709;SDS011;10516;51.518;9.864;2023-09-07T00:32:59;10.48;;;6.13;;
20709;SDS011;10516;51.518;9.864;2023-09-07T00:35:24;6.15;;;5.55;;
20709;SDS011;10516;51.518;9.864;2023-09-07T00:37:49;12.13;;;6.53;;
20709;SDS011;10516;51.518;9.864;2023-09-07T00:40:15;13.65;;;7.00;;
20709;SDS011;10516;51.518;9.864;2023-09-07T00:42:40;10.68;;;6.57;;
20709;SDS011;10516;51.518;9.864;2023-09-07T00:45:06;10.50;;;6.65;;
20709;SDS011;10516;51.518;9.864;2023-09-07T00:47:32;8.90;;;6.72;;
20709;SDS011;10516;51.518;9.864;2023-09-07T00:50:00;11.02;;;6.32;;
20709;SDS011;10516;51.518;9.864;2023-09-07T00:52:25;9.35;;;6.13;;
20709;SDS011;10516;51.518;9.864;2023-09-07T00:54:52;8.18;;;6.10;;
20709;SDS011;10516;51.518;9.864;2023-09-07T00:57:18;13.75;;;7.07;;
20709;SDS011;10516;51.518;9.864;2023-09-07T00:59:43;13.98;;;7.07;;
20709;SDS011;10516;51.518;9.864;2023-09-07T01:02:08;10.27;;;5.88;;
20709;SDS011;10516;51.518;9.864;2023-09-07T01:04:34;12.85;;;6.40;;
20709;SDS011;10516;51.518;9.864;2023-09-07T01:07:03;13.48;;;6.72;;
20709;SDS011;10516;51.518;9.864;2023-09-07T01:09:42;7.47;;;5.45;;
20709;SDS011;10516;51.518;9.864;2023-09-07T01:12:15;11.30;;;6.22;;
20709;SDS011;10516;51.518;9.864;2023-09-07T01:14:41;9.70;;;6.63;;
20709;SDS011;10516;51.518;9.864;2023-09-07T01:17:07;9.60;;;5.97;;
20709;SDS011;10516;51.518;9.864;2023-09-07T01:19:34;8.60;;;6.32;;
20709;SDS011;10516;51.518;9.864;2023-09-07T01:22:00;14.45;;;6.68;;
20709;SDS011;10516;51.518;9.864;2023-09-07T01:24:25;11.40;;;6.10;;
20709;SDS011;10516;51.518;9.864;2023-09-07T01:26:54;8.32;;;6.65;;
20709;SDS011;10516;51.518;9.864;2023-09-07T01:29:21;9.23;;;6.07;;
20709;SDS011;10516;51.518;9.864;2023-09-07T01:31:47;7.57;;;6.72;;
20709;SDS011;10516;51.518;9.864;2023-09-07T01:34:13;10.10;;;6.15;;
20709;SDS011;10516;51.518;9.864;2023-09-07T01:36:39;10.15;;;6.18;;
20709;SDS011;10516;51.518;9.864;2023-09-07T01:39:05;8.68;;;6.03;;
20709;SDS011;10516;51.518;9.864;2023-09-07T01:41:31;15.68;;;7.88;;
20709;SDS011;10516;51.518;9.864;2023-09-07T01:43:56;8.90;;;6.35;;
20709;SDS011;10516;51.518;9.864;2023-09-07T01:46:22;8.23;;;6.53;;
20709;SDS011;10516;51.518;9.864;2023-09-07T01:48:47;8.98;;;6.43;;
20709;SDS011;10516;51.518;9.864;2023-09-07T01:51:13;12.07;;;7.07;;
20709;SDS011;10516;51.518;9.864;2023-09-07T01:53:38;9.60;;;5.90;;
20709;SDS011;10516;51.518;9.864;2023-09-07T01:56:03;10.32;;;7.05;;
20709;SDS011;10516;51.518;9.864;2023-09-07T01:58:29;10.73;;;6.82;;
20709;SDS011;10516;51.518;9.864;2023-09-07T02:00:57;9.80;;;6.75;;
20709;SDS011;10516;51.518;9.864;2023-09-07T02:03:23;12.68;;;6.85;;
20709;SDS011;10516;51.518;9.864;2023-09-07T02:05:49;9.07;;;6.63;;
20709;SDS011;10516;51.518;9.864;2023-09-07T02:08:15;8.68;;;6.68;;
20709;SDS011;10516;51.518;9.864;2023-09-07T02:10:40;13.55;;;6.55;;
20709;SDS011;10516;51.518;9.864;2023-09-07T02:13:06;13.45;;;6.60;;
20709;SDS011;10516;51.518;9.864;2023-09-07T02:15:31;15.60;;;6.72;;
20709;SDS011;10516;51.518;9.864;2023-09-07T02:17:56;10.45;;;6.95;;
20709;SDS011;10516;51.518;9.864;2023-09-07T02:20:22;9.23;;;5.97;;
20709;SDS011;10516;51.518;9.864;2023-09-07T02:22:47;11.02;;;6.70;;
20709;SDS011;10516;51.518;9.864;2023-09-07T02:25:12;7.70;;;6.47;;
20709;SDS011;10516;51.518;9.864;2023-09-07T02:27:39;14.48;;;6.75;;
20709;SDS011;10516;51.518;9.864;2023-09-07T02:30:06;15.82;;;6.68;;
20709;SDS011;10516;51.518;9.864;2023-09-07T02:32:32;9.90;;;6.57;;
20709;SDS011;10516;51.518;9.864;2023-09-07T02:34:58;12.77;;;6.93;;
20709;SDS011;10516;51.518;9.864;2023-09-07T02:37:23;13.40;;;7.25;;
20709;SDS011;10516;51.518;9.864;2023-09-07T02:39:48;17.73;;;6.25;;
20709;SDS011;10516;51.518;9.864;2023-09-07T02:42:14;13.93;;;7.45;;
20709;SDS011;10516;51.518;9.864;2023-09-07T02:44:39;11.45;;;6.30;;
20709;SDS011;10516;51.518;9.864;2023-09-07T02:47:05;13.20;;;7.60;;
20709;SDS011;10516;51.518;9.864;2023-09-07T02:49:30;7.93;;;6.60;;
20709;SDS011;10516;51.518;9.864;2023-09-07T02:51:55;12.75;;;6.35;;
20709;SDS011;10516;51.518;9.864;2023-09-07T02:54:21;9.32;;;7.20;;
20709;SDS011;10516;51.518;9.864;2023-09-07T02:56:47;12.27;;;6.43;;
20709;SDS011;10516;51.518;9.864;2023-09-07T02:59:13;10.80;;;6.65;;
20709;SDS011;10516;51.518;9.864;2023-09-07T03:01:38;8.60;;;6.75;;
20709;SDS011;10516;51.518;9.864;2023-09-07T03:04:04;16.63;;;7.05;;
20709;SDS011;10516;51.518;9.864;2023-09-07T03:06:30;8.63;;;6.15;;
20709;SDS011;10516;51.518;9.864;2023-09-07T03:08:56;7.40;;;6.18;;
20709;SDS011;10516;51.518;9.864;2023-09-07T03:11:22;9.80;;;6.82;;
20709;SDS011;10516;51.518;9.864;2023-09-07T03:13:47;7.47;;;6.63;;
20709;SDS011;10516;51.518;9.864;2023-09-07T03:16:13;10.27;;;7.45;;
20709;SDS011;10516;51.518;9.864;2023-09-07T03:18:38;9.63;;;7.22;;
20709;SDS011;10516;51.518;9.864;2023-09-07T03:21:03;9.07;;;6.55;;
20709;SDS011;10516;51.518;9.864;2023-09-07T03:23:29;9.38;;;7.38;;
20709;SDS011;10516;51.518;9.864;2023-09-07T03:25:56;10.65;;;7.25;;
20709;SDS011;10516;51.518;9.864;2023-09-07T03:28:22;11.02;;;7.35;;
20709;SDS011;10516;51.518;9.864;2023-09-07T03:30:47;10.93;;;7.28;;
20709;SDS011;10516;51.518;9.864;2023-09-07T03:33:13;11.68;;;7.20;;
20709;SDS011;10516;51.518;9.864;2023-09-07T03:35:38;9.75;;;6.70;;
20709;SDS011;10516;51.518;9.864;2023-09-07T03:38:05;8.75;;;6.78;;
20709;SDS011;10516;51.518;9.864;2023-09-07T03:40:31;8.98;;;6.80;;
20709;SDS011;10516;51.518;9.864;2023-09-07T03:42:56;8.40;;;7.05;;
20709;SDS011;10516;51.518;9.864;2023-09-07T03:45:22;11.07;;;7.55;;
20709;SDS011;10516;51.518;9.864;2023-09-07T03:47:47;8.73;;;7.18;;
20709;SDS011;10516;51.518;9.864;2023-09-07T03:50:12;8.93;;;7.30;;
20709;SDS011;10516;51.518;9.864;2023-09-07T03:52:38;8.48;;;7.45;;
20709;SDS011;10516;51.518;9.864;2023-09-07T03:55:03;10.10;;;8.27;;
20709;SDS011;10516;51.518;9.864;2023-09-07T03:57:29;12.85;;;7.13;;
20709;SDS011;10516;51.518;9.864;2023-09-07T03:59:55;17.00;;;8.48;;
20709;SDS011;10516;51.518;9.864;2023-09-07T04:02:21;12.25;;;8.35;;
20709;SDS011;10516;51.518;9.864;2023-09-07T04:04:48;10.82;;;7.65;;
20709;SDS011;10516;51.518;9.864;2023-09-07T04:07:17;14.85;;;7.93;;
20709;SDS011;10516;51.518;9.864;2023-09-07T04:09:42;11.82;;;7.60;;
20709;SDS011;10516;51.518;9.864;2023-09-07T04:12:09;11.32;;;7.60;;
20709;SDS011;10516;51.518;9.864;2023-09-07T04:14:34;9.43;;;7.72;;
20709;SDS011;10516;51.518;9.864;2023-09-07T04:17:00;14.38;;;8.18;;
20709;SDS011;10516;51.518;9.864;2023-09-07T04:19:25;11.10;;;7.90;;
20709;SDS011;10516;51.518;9.864;2023-09-07T04:21:51;11.52;;;7.70;;
20709;SDS011;10516;51.518;9.864;2023-09-07T04:24:16;10.13;;;7.78;;
20709;SDS011;10516;51.518;9.864;2023-09-07T04:26:42;12.40;;;7.57;;
20709;SDS011;10516;51.518;9.864;2023-09-07T04:29:07;11.50;;;7.78;;
20709;SDS011;10516;51.518;9.864;2023-09-07T04:31:33;13.57;;;7.63;;
20709;SDS011;10516;51.518;9.864;2023-09-07T04:33:58;12.80;;;8.05;;
20709;SDS011;10516;51.518;9.864;2023-09-07T04:36:24;9.63;;;8.40;;
20709;SDS011;10516;51.518;9.864;2023-09-07T04:38:50;11.75;;;7.82;;
20709;SDS011;10516;51.518;9.864;2023-09-07T04:41:15;11.80;;;8.05;;
20709;SDS011;10516;51.518;9.864;2023-09-07T04:43:41;10.48;;;7.68;;
20709;SDS011;10516;51.518;9.864;2023-09-07T04:46:13;9.57;;;7.30;;
20709;SDS011;10516;51.518;9.864;2023-09-07T04:48:40;9.93;;;7.53;;
20709;SDS011;10516;51.518;9.864;2023-09-07T04:51:07;8.40;;;7.45;;
20709;SDS011;10516;51.518;9.864;2023-09-07T04:53:34;11.05;;;7.35;;
20709;SDS011;10516;51.518;9.864;2023-09-07T04:56:01;8.50;;;7.32;;
20709;SDS011;10516;51.518;9.864;2023-09-07T04:58:27;11.55;;;8.07;;
20709;SDS011;10516;51.518;9.864;2023-09-07T05:00:53;10.23;;;8.40;;
20709;SDS011;10516;51.518;9.864;2023-09-07T05:03:19;8.48;;;7.57;;
20709;SDS011;10516;51.518;9.864;2023-09-07T05:05:45;13.75;;;8.13;;
20709;SDS011;10516;51.518;9.864;2023-09-07T05:08:16;10.13;;;8.30;;
20709;SDS011;10516;51.518;9.864;2023-09-07T05:10:41;10.63;;;7.47;;
20709;SDS011;10516;51.518;9.864;2023-09-07T05:13:07;11.32;;;8.27;;
20709;SDS011;10516;51.518;9.864;2023-09-07T05:15:33;10.73;;;8.38;;
20709;SDS011;10516;51.518;9.864;2023-09-07T05:17:58;8.13;;;7.20;;
20709;SDS011;10516;51.518;9.864;2023-09-07T05:20:24;14.38;;;8.00;;
20709;SDS011;10516;51.518;9.864;2023-09-07T05:22:49;9.27;;;7.28;;
20709;SDS011;10516;51.518;9.864;2023-09-07T05:25:15;8.55;;;7.25;;
20709;SDS011;10516;51.518;9.864;2023-09-07T05:27:41;9.52;;;7.25;;
20709;SDS011;10516;51.518;9.864;2023-09-07T05:30:06;15.85;;;8.70;;
20709;SDS011;10516;51.518;9.864;2023-09-07T05:32:32;10.20;;;7.57;;
20709;SDS011;10516;51.518;9.864;2023-09-07T05:34:57;12.10;;;7.95;;
20709;SDS011;10516;51.518;9.864;2023-09-07T05:37:23;9.20;;;6.60;;
20709;SDS011;10516;51.518;9.864;2023-09-07T05:39:51;9.25;;;7.80;;
20709;SDS011;10516;51.518;9.864;2023-09-07T05:42:17;9.63;;;7.70;;
20709;SDS011;10516;51.518;9.864;2023-09-07T05:44:42;9.20;;;7.65;;
20709;SDS011;10516;51.518;9.864;2023-09-07T05:47:07;15.32;;;9.23;;
20709;SDS011;10516;51.518;9.864;2023-09-07T05:49:33;10.95;;;8.38;;
20709;SDS011;10516;51.518;9.864;2023-09-07T05:51:58;10.07;;;8.13;;
20709;SDS011;10516;51.518;9.864;2023-09-07T05:54:24;29.20;;;8.73;;
20709;SDS011;10516;51.518;9.864;2023-09-07T05:56:49;12.13;;;8.48;;
20709;SDS011;10516;51.518;9.864;2023-09-07T05:59:14;14.63;;;8.68;;
20709;SDS011;10516;51.518;9.864;2023-09-07T06:01:41;13.63;;;9.43;;
20709;SDS011;10516;51.518;9.864;2023-09-07T06:04:07;9.10;;;7.88;;
20709;SDS011;10516;51.518;9.864;2023-09-07T06:06:33;17.65;;;9.25;;
20709;SDS011;10516;51.518;9.864;2023-09-07T06:08:59;10.88;;;8.80;;
20709;SDS011;10516;51.518;9.864;2023-09-07T06:11:24;13.02;;;8.85;;
20709;SDS011;10516;51.518;9.864;2023-09-07T06:13:50;11.65;;;9.68;;
20709;SDS011;10516;51.518;9.864;2023-09-07T06:16:15;10.77;;;8.57;;
20709;SDS011;10516;51.518;9.864;2023-09-07T06:18:41;10.60;;;8.05;;
20709;SDS011;10516;51.518;9.864;2023-09-07T06:21:07;17.40;;;8.93;;
20709;SDS011;10516;51.518;9.864;2023-09-07T06:23:32;10.88;;;8.85;;
20709;SDS011;10516;51.518;9.864;2023-09-07T06:25:57;14.23;;;11.57;;
20709;SDS011;10516;51.518;9.864;2023-09-07T06:28:23;12.85;;;10.65;;
20709;SDS011;10516;51.518;9.864;2023-09-07T06:30:48;11.05;;;8.77;;
20709;SDS011;10516;51.518;9.864;2023-09-07T06:33:13;11.40;;;8.40;;
20709;SDS011;10516;51.518;9.864;2023-09-07T06:35:39;14.63;;;7.93;;
20709;SDS011;10516;51.518;9.864;2023-09-07T06:38:04;11.32;;;8.45;;
20709;SDS011;10516;51.518;9.864;2023-09-07T06:40:30;9.77;;;7.57;;
20709;SDS011;10516;51.518;9.864;2023-09-07T06:42:55;13.38;;;8.07;;
20709;SDS011;10516;51.518;9.864;2023-09-07T06:45:22;9.35;;;7.30;;
20709;SDS011;10516;51.518;9.864;2023-09-07T06:47:49;12.73;;;11.43;;
20709;SDS011;10516;51.518;9.864;2023-09-07T06:50:15;15.80;;;10.82;;
20709;SDS011;10516;51.518;9.864;2023-09-07T06:52:40;16.20;;;12.30;;
20709;SDS011;10516;51.518;9.864;2023-09-07T06:55:06;15.57;;;11.15;;
20709;SDS011;10516;51.518;9.864;2023-09-07T06:57:31;9.52;;;8.05;;
20709;SDS011;10516;51.518;9.864;2023-09-07T06:59:58;17.70;;;13.30;;
20709;SDS011;10516;51.518;9.864;2023-09-07T07:02:24;12.98;;;10.15;;
20709;SDS011;10516;51.518;9.864;2023-09-07T07:04:49;19.80;;;11.80;;
20709;SDS011;10516;51.518;9.864;2023-09-07T07:07:15;11.00;;;9.10;;
20709;SDS011;10516;51.518;9.864;2023-09-07T07:09:41;15.13;;;11.00;;
20709;SDS011;10516;51.518;9.864;2023-09-07T07:12:06;13.35;;;11.95;;
20709;SDS011;10516;51.518;9.864;2023-09-07T07:14:32;12.32;;;9.48;;
20709;SDS011;10516;51.518;9.864;2023-09-07T07:16:57;11.13;;;8.98;;
20709;SDS011;10516;51.518;9.864;2023-09-07T07:19:22;17.35;;;12.15;;
20709;SDS011;10516;51.518;9.864;2023-09-07T07:21:49;18.02;;;11.77;;
20709;SDS011;10516;51.518;9.864;2023-09-07T07:24:14;19.25;;;12.23;;
20709;SDS011;10516;51.518;9.864;2023-09-07T07:26:40;8.13;;;7.32;;
20709;SDS011;10516;51.518;9.864;2023-09-07T07:29:05;11.27;;;7.80;;
20709;SDS011;10516;51.518;9.864;2023-09-07T07:31:31;10.48;;;8.02;;
20709;SDS011;10516;51.518;9.864;2023-09-07T07:33:56;9.23;;;7.60;;
20709;SDS011;10516;51.518;9.864;2023-09-07T07:36:21;9.70;;;7.60;;
20709;SDS011;10516;51.518;9.864;2023-09-07T07:38:47;11.05;;;7.43;;
20709;SDS011;10516;51.518;9.864;2023-09-07T07:41:12;14.23;;;10.15;;
20709;SDS011;10516;51.518;9.864;2023-09-07T07:43:38;8.18;;;7.13;;
20709;SDS011;10516;51.518;9.864;2023-09-07T07:46:03;9.48;;;7.88;;
20709;SDS011;10516;51.518;9.864;2023-09-07T07:48:28;10.40;;;8.07;;
20709;SDS011;10516;51.518;9.864;2023-09-07T07:50:54;13.93;;;10.38;;
20709;SDS011;10516;51.518;9.864;2023-09-07T07:53:20;9.48;;;7.60;;
20709;SDS011;10516;51.518;9.864;2023-09-07T07:55:46;13.13;;;10.30;;
20709;SDS011;10516;51.518;9.864;2023-09-07T07:58:13;9.38;;;7.05;;
20709;SDS011;10516;51.518;9.864;2023-09-07T08:00:39;8.20;;;7.10;;
20709;SDS011;10516;51.518;9.864;2023-09-07T08:03:06;8.63;;;7.00;;
20709;SDS011;10516;51.518;9.864;2023-09-07T08:05:32;9.27;;;8.10;;
20709;SDS011;10516;51.518;9.864;2023-09-07T08:07:58;8.90;;;6.93;;
20709;SDS011;10516;51.518;9.864;2023-09-07T08:10:24;8.93;;;6.95;;
20709;SDS011;10516;51.518;9.864;2023-09-07T08:12:55;13.43;;;10.32;;
20709;SDS011;10516;51.518;9.864;2023-09-07T08:15:21;8.93;;;7.15;;
20709;SDS011;10516;51.518;9.864;2023-09-07T08:17:49;17.77;;;9.77;;
20709;SDS011;10516;51.518;9.864;2023-09-07T08:20:15;12.23;;;9.73;;
20709;SDS011;10516;51.518;9.864;2023-09-07T08:22:41;10.45;;;8.82;;
20709;SDS011;10516;51.518;9.864;2023-09-07T08:25:10;8.45;;;6.93;;
20709;SDS011;10516;51.518;9.864;2023-09-07T08:27:38;9.30;;;8.25;;
20709;SDS011;10516;51.518;9.864;2023-09-07T08:30:04;9.25;;;7.30;;
20709;SDS011;10516;51.518;9.864;2023-09-07T08:32:31;7.22;;;6.60;;
20709;SDS011;10516;51.518;9.864;2023-09-07T08:34:56;8.60;;;6.97;;
20709;SDS011;10516;51.518;9.864;2023-09-07T08:37:25;13.15;;;9.15;;
20709;SDS011;10516;51.518;9.864;2023-09-07T08:39:51;7.78;;;6.97;;
20709;SDS011;10516;51.518;9.864;2023-09-07T08:42:18;12.32;;;9.15;;
20709;SDS011;10516;51.518;9.864;2023-09-07T08:44:44;11.85;;;8.45;;
20709;SDS011;10516;51.518;9.864;2023-09-07T08:47:11;16.60;;;8.60;;
20709;SDS011;10516;51.518;9.864;2023-09-07T08:49:39;10.82;;;8.73;;
20709;SDS011;10516;51.518;9.864;2023-09-07T08:52:06;12.48;;;8.90;;
20709;SDS011;10516;51.518;9.864;2023-09-07T08:54:32;11.15;;;9.80;;
20709;SDS011;10516;51.518;9.864;2023-09-07T08:57:02;11.43;;;8.38;;
20709;SDS011;10516;51.518;9.864;2023-09-07T08:59:29;15.00;;;8.85;;
20709;SDS011;10516;51.518;9.864;2023-09-07T09:01:58;14.70;;;8.90;;
20709;SDS011;10516;51.518;9.864;2023-09-07T09:04:23;15.38;;;8.98;;
20709;SDS011;10516;51.518;9.864;2023-09-07T09:06:49;10.52;;;8.48;;
20709;SDS011;10516;51.518;9.864;2023-09-07T09:09:23;10.55;;;8.80;;
20709;SDS011;10516;51.518;9.864;2023-09-07T09:11:52;10.95;;;9.23;;
20709;SDS011;10516;51.518;9.864;2023-09-07T09:14:17;16.35;;;8.15;;
20709;SDS011;10516;51.518;9.864;2023-09-07T09:16:49;18.05;;;9.82;;
20709;SDS011;10516;51.518;9.864;2023-09-07T09:19:15;10.85;;;8.27;;
20709;SDS011;10516;51.518;9.864;2023-09-07T09:21:41;14.30;;;8.93;;
20709;SDS011;10516;51.518;9.864;2023-09-07T09:24:11;9.85;;;7.35;;
20709;SDS011;10516;51.518;9.864;2023-09-07T09:26:37;15.85;;;8.65;;
20709;SDS011;10516;51.518;9.864;2023-09-07T09:29:03;9.57;;;7.82;;
20709;SDS011;10516;51.518;9.864;2023-09-07T09:31:29;9.70;;;7.90;;
20709;SDS011;10516;51.518;9.864;2023-09-07T09:33:54;13.15;;;8.15;;
20709;SDS011;10516;51.518;9.864;2023-09-07T09:36:20;10.55;;;8.38;;
20709;SDS011;10516;51.518;9.864;2023-09-07T09:38:47;11.90;;;7.95;;
20709;SDS011;10516;51.518;9.864;2023-09-07T09:41:20;9.23;;;7.18;;
20709;SDS011;10516;51.518;9.864;2023-09-07T09:43:48;11.70;;;7.95;;
20709;SDS011;10516;51.518;9.864;2023-09-07T09:46:14;9.07;;;6.88;;
20709;SDS011;10516;51.518;9.864;2023-09-07T09:48:40;13.63;;;7.57;;
20709;SDS011;10516;51.518;9.864;2023-09-07T09:51:09;14.52;;;7.75;;
20709;SDS011;10516;51.518;9.864;2023-09-07T09:53:38;8.05;;;7.10;;
20709;SDS011;10516;51.518;9.864;2023-09-07T09:56:04;12.68;;;7.15;;
20709;SDS011;10516;51.518;9.864;2023-09-07T09:58:29;8.38;;;6.47;;
20709;SDS011;10516;51.518;9.864;2023-09-07T10:00:55;8.50;;;6.25;;
20709;SDS011;10516;51.518;9.864;2023-09-07T10:03:24;7.40;;;5.82;;
20709;SDS011;10516;51.518;9.864;2023-09-07T10:05:52;7.65;;;6.85;;
20709;SDS011;10516;51.518;9.864;2023-09-07T10:08:18;12.02;;;6.70;;
20709;SDS011;10516;51.518;9.864;2023-09-07T10:10:48;17.05;;;7.45;;
20709;SDS011;10516;51.518;9.864;2023-09-07T10:13:28;7.70;;;5.28;;
20709;SDS011;10516;51.518;9.864;2023-09-07T10:16:04;7.85;;;5.82;;
20709;SDS011;10516;51.518;9.864;2023-09-07T10:18:37;9.20;;;5.35;;
20709;SDS011;10516;51.518;9.864;2023-09-07T10:21:03;6.45;;;5.38;;
20709;SDS011;10516;51.518;9.864;2023-09-07T10:23:36;11.70;;;5.90;;
20709;SDS011;10516;51.518;9.864;2023-09-07T10:26:12;9.52;;;5.65;;
20709;SDS011;10516;51.518;9.864;2023-09-07T10:28:42;6.95;;;5.03;;
20709;SDS011;10516;51.518;9.864;2023-09-07T10:31:15;7.20;;;5.60;;
20709;SDS011;10516;51.518;9.864;2023-09-07T10:33:42;7.20;;;6.38;;
20709;SDS011;10516;51.518;9.864;2023-09-07T10:36:07;7.40;;;5.47;;
20709;SDS011;10516;51.518;9.864;2023-09-07T10:38:33;8.00;;;5.55;;
20709;SDS011;10516;51.518;9.864;2023-09-07T10:41:00;9.30;;;6.10;;
20709;SDS011;10516;51.518;9.864;2023-09-07T10:43:28;6.30;;;5.63;;
20709;SDS011;10516;51.518;9.864;2023-09-07T10:45:57;6.95;;;6.25;;
20709;SDS011;10516;51.518;9.864;2023-09-07T10:48:25;9.15;;;5.38;;
20709;SDS011;10516;51.518;9.864;2023-09-07T10:50:53;6.32;;;5.55;;
20709;SDS011;10516;51.518;9.864;2023-09-07T10:53:28;7.25;;;4.93;;
20709;SDS011;10516;51.518;9.864;2023-09-07T10:55:57;6.75;;;5.55;;
20709;SDS011;10516;51.518;9.864;2023-09-07T10:58:27;6.55;;;5.72;;
20709;SDS011;10516;51.518;9.864;2023-09-07T11:00:57;5.65;;;5.15;;
20709;SDS011;10516;51.518;9.864;2023-09-07T11:03:24;6.65;;;5.15;;
20709;SDS011;10516;51.518;9.864;2023-09-07T11:05:51;9.05;;;5.82;;
20709;SDS011;10516;51.518;9.864;2023-09-07T11:08:31;6.05;;;5.05;;
20709;SDS011;10516;51.518;9.864;2023-09-07T11:10:58;5.95;;;5.35;;
20709;SDS011;10516;51.518;9.864;2023-09-07T11:13:24;7.32;;;5.05;;
20709;SDS011;10516;51.518;9.864;2023-09-07T11:15:52;7.55;;;5.85;;
20709;SDS011;10516;51.518;9.864;2023-09-07T11:18:20;5.85;;;5.13;;
20709;SDS011;10516;51.518;9.864;2023-09-07T11:20:49;11.48;;;5.32;;
20709;SDS011;10516;51.518;9.864;2023-09-07T11:23:19;6.65;;;5.90;;
20709;SDS011;10516;51.518;9.864;2023-09-07T11:25:46;5.90;;;4.93;;
20709;SDS011;10516;51.518;9.864;2023-09-07T11:28:12;8.73;;;5.28;;
20709;SDS011;10516;51.518;9.864;2023-09-07T11:30:50;8.82;;;4.78;;
20709;SDS011;10516;51.518;9.864;2023-09-07T11:33:17;7.20;;;5.18;;
20709;SDS011;10516;51.518;9.864;2023-09-07T11:35:42;8.65;;;5.53;;
20709;SDS011;10516;51.518;9.864;2023-09-07T11:38:08;6.80;;;5.78;;
20709;SDS011;10516;51.518;9.864;2023-09-07T11:40:36;10.00;;;5.72;;
20709;SDS011;10516;51.518;9.864;2023-09-07T11:43:01;5.90;;;4.93;;
20709;SDS011;10516;51.518;9.864;2023-09-07T11:45:27;11.55;;;5.57;;
20709;SDS011;10516;51.518;9.864;2023-09-07T11:47:52;9.98;;;5.18;;
20709;SDS011;10516;51.518;9.864;2023-09-07T11:50:18;6.32;;;5.07;;
20709;SDS011;10516;51.518;9.864;2023-09-07T11:52:44;7.65;;;5.05;;
20709;SDS011;10516;51.518;9.864;2023-09-07T11:55:10;7.57;;;5.28;;
20709;SDS011;10516;51.518;9.864;2023-09-07T11:57:36;7.35;;;5.20;;
20709;SDS011;10516;51.518;9.864;2023-09-07T12:00:01;6.70;;;5.18;;
20709;SDS011;10516;51.518;9.864;2023-09-07T12:02:27;5.47;;;4.88;;
20709;SDS011;10516;51.518;9.864;2023-09-07T12:04:53;11.80;;;6.05;;
20709;SDS011;10516;51.518;9.864;2023-09-07T12:07:19;5.70;;;4.80;;
20709;SDS011;10516;51.518;9.864;2023-09-07T12:09:45;5.75;;;5.15;;
20709;SDS011;10516;51.518;9.864;2023-09-07T12:12:10;5.43;;;4.85;;
20709;SDS011;10516;51.518;9.864;2023-09-07T12:14:35;10.80;;;5.75;;
20709;SDS011;10516;51.518;9.864;2023-09-07T12:17:01;7.65;;;5.57;;
20709;SDS011;10516;51.518;9.864;2023-09-07T12:19:26;6.18;;;5.60;;
20709;SDS011;10516;51.518;9.864;2023-09-07T12:21:51;7.85;;;5.20;;
20709;SDS011;10516;51.518;9.864;2023-09-07T12:24:17;6.25;;;5.40;;
20709;SDS011;10516;51.518;9.864;2023-09-07T12:26:42;7.55;;;5.18;;
20709;SDS011;10516;51.518;9.864;2023-09-07T12:29:08;12.45;;;6.32;;
20709;SDS011;10516;51.518;9.864;2023-09-07T12:31:33;7.82;;;5.53;;
20709;SDS011;10516;51.518;9.864;2023-09-07T12:33:59;7.85;;;5.93;;
20709;SDS011;10516;51.518;9.864;2023-09-07T12:36:24;7.28;;;5.70;;
20709;SDS011;10516;51.518;9.864;2023-09-07T12:38:53;8.93;;;5.97;;
20709;SDS011;10516;51.518;9.864;2023-09-07T12:41:18;7.43;;;6.47;;
20709;SDS011;10516;51.518;9.864;2023-09-07T12:43:44;6.35;;;5.68;;
20709;SDS011;10516;51.518;9.864;2023-09-07T12:46:09;7.63;;;5.10;;
20709;SDS011;10516;51.518;9.864;2023-09-07T12:48:35;7.72;;;5.07;;
20709;SDS011;10516;51.518;9.864;2023-09-07T12:51:00;7.80;;;5.07;;
20709;SDS011;10516;51.518;9.864;2023-09-07T12:53:25;7.80;;;5.72;;
20709;SDS011;10516;51.518;9.864;2023-09-07T12:55:54;7.38;;;5.65;;
20709;SDS011;10516;51.518;9.864;2023-09-07T12:58:20;7.82;;;5.70;;
20709;SDS011;10516;51.518;9.864;2023-09-07T13:00:45;9.00;;;5.18;;
20709;SDS011;10516;51.518;9.864;2023-09-07T13:03:13;12.30;;;5.15;;
20709;SDS011;10516;51.518;9.864;2023-09-07T13:05:39;7.90;;;5.70;;
20709;SDS011;10516;51.518;9.864;2023-09-07T13:08:04;8.18;;;5.35;;
20709;SDS011;10516;51.518;9.864;2023-09-07T13:10:31;5.68;;;5.07;;
20709;SDS011;10516;51.518;9.864;2023-09-07T13:12:57;9.10;;;6.05;;
20709;SDS011;10516;51.518;9.864;2023-09-07T13:15:22;9.65;;;5.38;;
20709;SDS011;10516;51.518;9.864;2023-09-07T13:17:48;5.15;;;4.70;;
20709;SDS011;10516;51.518;9.864;2023-09-07T13:20:13;9.52;;;5.63;;
20709;SDS011;10516;51.518;9.864;2023-09-07T13:22:38;7.18;;;4.85;;
20709;SDS011;10516;51.518;9.864;2023-09-07T13:25:04;5.78;;;4.65;;
20709;SDS011;10516;51.518;9.864;2023-09-07T13:27:30;7.43;;;5.43;;
20709;SDS011;10516;51.518;9.864;2023-09-07T13:29:56;7.40;;;4.97;;
20709;SDS011;10516;51.518;9.864;2023-09-07T13:32:22;9.27;;;5.00;;
20709;SDS011;10516;51.518;9.864;2023-09-07T13:34:49;7.32;;;5.13;;
20709;SDS011;10516;51.518;9.864;2023-09-07T13:37:14;9.05;;;4.93;;
20709;SDS011;10516;51.518;9.864;2023-09-07T13:39:40;4.88;;;4.28;;
20709;SDS011;10516;51.518;9.864;2023-09-07T13:42:05;12.30;;;4.97;;
20709;SDS011;10516;51.518;9.864;2023-09-07T13:44:30;12.55;;;5.13;;
20709;SDS011;10516;51.518;9.864;2023-09-07T13:46:56;16.50;;;4.78;;
20709;SDS011;10516;51.518;9.864;2023-09-07T13:49:21;7.18;;;4.25;;
20709;SDS011;10516;51.518;9.864;2023-09-07T13:51:46;6.43;;;4.60;;
20709;SDS011;10516;51.518;9.864;2023-09-07T13:54:12;7.38;;;4.57;;
20709;SDS011;10516;51.518;9.864;2023-09-07T13:56:37;6.15;;;4.57;;
20709;SDS011;10516;51.518;9.864;2023-09-07T13:59:02;8.07;;;5.35;;
20709;SDS011;10516;51.518;9.864;2023-09-07T14:01:28;5.32;;;4.90;;
20709;SDS011;10516;51.518;9.864;2023-09-07T14:03:53;5.28;;;4.78;;
20709;SDS011;10516;51.518;9.864;2023-09-07T14:06:19;4.70;;;4.20;;
20709;SDS011;10516;51.518;9.864;2023-09-07T14:08:47;5.30;;;4.10;;
20709;SDS011;10516;51.518;9.864;2023-09-07T14:11:13;4.88;;;4.47;;
20709;SDS011;10516;51.518;9.864;2023-09-07T14:13:39;7.25;;;4.97;;
20709;SDS011;10516;51.518;9.864;2023-09-07T14:16:04;5.45;;;4.78;;
20709;SDS011;10516;51.518;9.864;2023-09-07T14:18:30;6.47;;;4.78;;
20709;SDS011;10516;51.518;9.864;2023-09-07T14:20:55;5.10;;;4.32;;
20709;SDS011;10516;51.518;9.864;2023-09-07T14:23:23;4.63;;;4.22;;
20709;SDS011;10516;51.518;9.864;2023-09-07T14:25:50;6.63;;;5.32;;
20709;SDS011;10516;51.518;9.864;2023-09-07T14:28:16;10.02;;;5.15;;
20709;SDS011;10516;51.518;9.864;2023-09-07T14:30:41;7.05;;;4.60;;
20709;SDS011;10516;51.518;9.864;2023-09-07T14:33:07;4.32;;;3.92;;
20709;SDS011;10516;51.518;9.864;2023-09-07T14:35:32;5.22;;;4.70;;